createdAt,value
2023-04-05T00:01:53.450Z,97589.03
2023-04-05T00:08:13.380Z,97584.44
2023-04-05T00:11:14.877Z,97583.97
2023-04-05T00:14:16.369Z,97589.25
2023-04-05T00:17:18.083Z,97585.47
2023-04-05T00:20:20.094Z,97588.31
2023-04-05T00:23:22.690Z,97582.22
2023-04-05T00:26:24.804Z,97579.59
2023-04-05T00:29:30.300Z,97580.94
2023-04-05T00:32:31.820Z,97578.50
2023-04-05T00:35:33.451Z,97577.25
2023-04-05T00:38:35.007Z,97577.47
2023-04-05T00:41:36.757Z,97581.06
2023-04-05T00:44:38.293Z,97574.47
2023-04-05T00:47:42.318Z,97582.88
2023-04-05T00:50:43.936Z,97579.59
2023-04-05T00:53:46.104Z,97585.16
2023-04-05T00:56:47.634Z,97582.53
2023-04-05T00:59:49.106Z,97574.63
2023-04-05T01:02:58.210Z,97571.63
2023-04-05T01:06:09.921Z,97569.97
2023-04-05T01:09:16.673Z,97560.91
2023-04-05T01:12:20.872Z,97568.31
2023-04-05T01:15:22.296Z,97557.09
2023-04-05T01:18:24.517Z,97547.53
2023-04-05T01:21:29.492Z,97545.38
2023-04-05T01:24:40.985Z,97532.16
2023-04-05T01:27:57.896Z,97527.06
2023-04-05T01:31:18.343Z,97528.31
2023-04-05T01:34:19.764Z,97520.28
2023-04-05T01:37:27.849Z,97524.50
2023-04-05T01:40:33.616Z,97518.53
2023-04-05T01:43:35.068Z,97518.63
2023-04-05T01:46:36.646Z,97515.06
2023-04-05T01:49:38.216Z,97514.03
2023-04-05T01:52:39.754Z,97514.25
2023-04-05T01:55:41.279Z,97508.50
2023-04-05T01:58:43.407Z,97512.13
2023-04-05T02:01:44.925Z,97501.75
2023-04-05T02:04:46.395Z,97497.00
2023-04-05T02:07:47.876Z,97493.38
2023-04-05T02:10:49.842Z,97485.91
2023-04-05T02:13:51.493Z,97484.38
2023-04-05T02:16:56.622Z,97485.94
2023-04-05T02:20:09.952Z,97478.50
2023-04-05T02:23:11.690Z,97479.78
2023-04-05T02:26:13.227Z,97481.66
2023-04-05T02:29:14.710Z,97478.72
2023-04-05T02:32:16.880Z,97479.22
2023-04-05T02:35:19.207Z,97470.00
2023-04-05T02:38:20.928Z,97469.19
2023-04-05T02:41:23.807Z,97473.75
2023-04-05T02:44:25.727Z,97475.06
2023-04-05T02:47:28.652Z,97483.72
2023-04-05T02:50:33.372Z,97480.25
2023-04-05T02:53:35.308Z,97476.22
2023-04-05T02:56:40.502Z,97478.56
2023-04-05T02:59:46.931Z,97482.97
2023-04-05T03:02:48.456Z,97484.03
2023-04-05T03:06:01.432Z,97482.06
2023-04-05T03:09:09.221Z,97478.25
2023-04-05T03:12:12.080Z,97480.19
2023-04-05T03:15:16.405Z,97484.28
2023-04-05T03:18:19.428Z,97469.19
2023-04-05T03:21:21.774Z,97469.75
2023-04-05T03:24:32.824Z,97473.38
2023-04-05T03:27:38.446Z,97478.69
2023-04-05T03:30:44.434Z,97477.34
2023-04-05T03:33:52.059Z,97474.22
2023-04-05T03:36:53.676Z,97475.31
2023-04-05T03:40:06.771Z,97466.16
2023-04-05T03:43:09.674Z,97465.50
2023-04-05T03:46:11.979Z,97472.03
2023-04-05T03:49:13.843Z,97466.59
2023-04-05T03:52:15.442Z,97462.13
2023-04-05T03:55:19.770Z,97453.03
2023-04-05T03:58:22.785Z,97454.50
2023-04-05T04:01:24.408Z,97455.84
2023-04-05T04:04:26.418Z,97453.47
2023-04-05T04:07:28.302Z,97463.81
2023-04-05T04:10:29.791Z,97465.44
2023-04-05T04:13:33.120Z,97465.69
2023-04-05T04:16:38.797Z,97461.31
2023-04-05T04:19:58.452Z,97468.75
2023-04-05T04:23:20.528Z,97467.41
2023-04-05T04:26:37.448Z,97466.94
2023-04-05T04:29:56.529Z,97466.34
2023-04-05T04:33:09.231Z,97462.72
2023-04-05T04:36:42.983Z,97463.47
2023-04-05T04:39:57.041Z,97468.22
2023-04-05T04:43:33.928Z,97461.75
2023-04-05T04:46:55.736Z,97464.16
2023-04-05T04:50:21.168Z,97470.41
2023-04-05T04:53:24.172Z,97465.44
2023-04-05T04:56:26.194Z,97465.59
2023-04-05T04:59:29.672Z,97460.84
2023-04-05T05:02:31.557Z,97469.22
2023-04-05T05:05:33.097Z,97472.56
2023-04-05T05:08:34.973Z,97473.75
2023-04-05T05:11:36.438Z,97484.53
2023-04-05T05:14:41.195Z,97484.03
2023-04-05T05:17:42.828Z,97481.59
2023-04-05T05:20:44.434Z,97476.66
2023-04-05T05:23:46.980Z,97482.31
2023-04-05T05:26:48.532Z,97479.16
2023-04-05T05:29:52.425Z,97487.19
2023-04-05T05:32:54.174Z,97486.69
2023-04-05T05:35:55.783Z,97487.69
2023-04-05T05:38:57.304Z,97488.06
2023-04-05T05:41:58.926Z,97495.03
2023-04-05T05:45:05.727Z,97498.22
2023-04-05T05:48:07.261Z,97493.38
2023-04-05T05:51:11.690Z,97492.63
2023-04-05T05:54:13.265Z,97492.19
2023-04-05T05:57:14.945Z,97500.53
2023-04-05T06:00:17.061Z,97494.81
2023-04-05T06:03:19.245Z,97499.50
2023-04-05T06:06:22.290Z,97499.03
2023-04-05T06:09:23.827Z,97495.81
2023-04-05T06:12:28.617Z,97505.25
2023-04-05T06:15:31.643Z,97499.97
2023-04-05T06:18:33.155Z,97501.63
2023-04-05T06:21:34.700Z,97503.66
2023-04-05T06:24:36.195Z,97499.22
2023-04-05T06:27:37.729Z,97497.38
2023-04-05T06:30:39.541Z,97505.28
2023-04-05T06:33:41.709Z,97495.09
2023-04-05T06:36:43.219Z,97503.19
2023-04-05T06:39:44.643Z,97496.91
2023-04-05T06:42:46.351Z,97505.63
2023-04-05T06:45:52.177Z,97501.00
2023-04-05T06:48:53.686Z,97503.31
2023-04-05T06:51:55.465Z,97499.50
2023-04-05T06:54:56.987Z,97500.34
2023-04-05T06:57:58.427Z,97490.75
2023-04-05T07:01:01.275Z,97489.44
2023-04-05T07:04:02.834Z,97491.34
2023-04-05T07:07:04.433Z,97498.50
2023-04-05T07:10:06.552Z,97491.38
2023-04-05T07:13:08.052Z,97496.13
2023-04-05T07:16:09.594Z,97489.44
2023-04-05T07:19:11.322Z,97489.94
2023-04-05T07:22:12.890Z,97490.00
2023-04-05T07:25:14.494Z,97496.59
2023-04-05T07:28:16.028Z,97494.16
2023-04-05T07:31:17.597Z,97494.53
2023-04-05T07:34:24.386Z,97494.38
2023-04-05T07:37:27.499Z,97502.19
2023-04-05T07:40:29.084Z,97502.78
2023-04-05T07:43:30.639Z,97496.78
2023-04-05T07:46:32.128Z,97494.84
2023-04-05T07:49:33.656Z,97500.06
2023-04-05T07:52:35.272Z,97500.44
2023-04-05T07:55:39.560Z,97506.00
2023-04-05T07:58:42.093Z,97508.09
2023-04-05T08:01:43.646Z,97501.81
2023-04-05T08:04:46.076Z,97502.47
2023-04-05T08:07:48.519Z,97498.59
2023-04-05T08:10:50.318Z,97493.56
2023-04-05T08:13:53.665Z,97497.72
2023-04-05T08:16:55.209Z,97499.47
2023-04-05T08:19:56.821Z,97498.03
2023-04-05T08:22:58.414Z,97487.31
2023-04-05T08:25:59.820Z,97487.72
2023-04-05T08:29:01.438Z,97485.19
2023-04-05T08:32:03.081Z,97479.09
2023-04-05T08:35:05.087Z,97486.28
2023-04-05T08:38:07.261Z,97485.53
2023-04-05T08:41:16.781Z,97484.56
2023-04-05T08:44:22.536Z,97484.72
2023-04-05T08:47:24.224Z,97470.78
2023-04-05T08:50:27.277Z,97486.03
2023-04-05T08:53:29.190Z,97483.56
2023-04-05T08:56:35.200Z,97477.44
2023-04-05T08:59:39.964Z,97480.59
2023-04-05T09:02:45.004Z,97487.44
2023-04-05T09:05:49.810Z,97487.31
2023-04-05T09:08:51.664Z,97483.84
2023-04-05T09:11:53.386Z,97479.00
2023-04-05T09:14:55.998Z,97481.91
2023-04-05T09:17:57.620Z,97481.16
2023-04-05T09:21:04.817Z,97480.31
2023-04-05T09:24:06.775Z,97477.31
2023-04-05T09:27:18.839Z,97472.81
2023-04-05T09:30:28.053Z,97475.84
2023-04-05T09:33:29.666Z,97476.13
2023-04-05T09:36:33.583Z,97475.97
2023-04-05T09:39:35.111Z,97475.38
2023-04-05T09:42:54.502Z,97465.81
2023-04-05T09:45:56.047Z,97472.81
2023-04-05T09:48:57.815Z,97478.63
2023-04-05T09:51:59.366Z,97476.03
2023-04-05T09:55:04.884Z,97461.59
2023-04-05T09:58:12.006Z,97466.41
2023-04-05T10:01:17.316Z,97462.44
2023-04-05T10:04:24.706Z,97458.59
2023-04-05T10:07:26.364Z,97463.38
2023-04-05T10:10:29.160Z,97459.16
2023-04-05T10:13:31.002Z,97463.19
2023-04-05T10:16:36.574Z,97472.66
2023-04-05T10:19:53.044Z,97469.34
2023-04-05T10:23:11.633Z,97471.53
2023-04-05T10:26:36.987Z,97468.38
2023-04-05T10:30:03.674Z,97465.41
2023-04-05T10:33:38.873Z,97471.63
2023-04-05T10:36:58.559Z,97466.09
2023-04-05T10:40:04.365Z,97467.47
2023-04-05T10:43:11.974Z,97460.97
2023-04-05T10:46:22.363Z,97463.09
2023-04-05T10:49:29.838Z,97465.16
2023-04-05T10:52:32.991Z,97465.75
2023-04-05T10:55:36.043Z,97460.34
2023-04-05T10:58:40.559Z,97457.91
2023-04-05T11:01:42.582Z,97455.91
2023-04-05T11:04:44.353Z,97457.34
2023-04-05T11:07:49.611Z,97456.47
2023-04-05T11:10:53.264Z,97449.50
2023-04-05T11:13:56.924Z,97451.22
2023-04-05T11:16:59.696Z,97444.47
2023-04-05T11:20:06.206Z,97443.59
2023-04-05T11:23:08.376Z,97441.94
2023-04-05T11:26:10.200Z,97446.28
2023-04-05T11:29:12.123Z,97444.63
2023-04-05T11:32:13.982Z,97440.75
2023-04-05T11:35:23.278Z,97433.34
2023-04-05T11:38:24.791Z,97431.69
2023-04-05T11:41:33.491Z,97432.28
2023-04-05T11:44:46.798Z,97429.84
2023-04-05T11:47:48.373Z,97422.09
2023-04-05T11:50:51.225Z,97416.31
2023-04-05T11:53:58.902Z,97424.53
2023-04-05T11:57:03.838Z,97426.19
2023-04-05T12:00:07.858Z,97411.00
2023-04-05T12:03:17.074Z,97420.84
2023-04-05T12:06:22.572Z,97403.38
2023-04-05T12:09:30.059Z,97410.56
2023-04-05T12:12:36.388Z,97407.66
2023-04-05T12:15:40.809Z,97405.13
2023-04-05T12:18:42.548Z,97399.66
2023-04-05T12:21:44.228Z,97393.56
2023-04-05T12:24:46.005Z,97386.72
2023-04-05T12:27:47.888Z,97388.06
2023-04-05T12:30:54.227Z,97383.84
2023-04-05T12:33:59.357Z,97385.31
2023-04-05T12:37:03.096Z,97383.69
2023-04-05T12:40:05.437Z,97377.78
2023-04-05T12:43:08.428Z,97388.13
2023-04-05T12:46:17.590Z,97388.50
2023-04-05T12:49:19.290Z,97385.38
2023-04-05T12:52:23.649Z,97384.16
2023-04-05T12:55:27.146Z,97378.41
2023-04-05T12:58:37.920Z,97377.25
2023-04-05T13:01:39.442Z,97363.16
2023-04-05T13:04:40.960Z,97367.69
2023-04-05T13:07:42.403Z,97369.56
2023-04-05T13:10:46.158Z,97369.41
2023-04-05T13:13:47.625Z,97354.66
2023-04-05T13:16:49.045Z,97361.63
2023-04-05T13:19:50.580Z,97381.59
2023-04-05T13:22:52.105Z,97357.22
2023-04-05T13:25:53.548Z,97354.75
2023-04-05T13:28:55.446Z,97355.69
2023-04-05T13:31:56.926Z,97349.84
2023-04-05T13:34:58.420Z,97355.84
2023-04-05T13:38:03.879Z,97366.94
2023-04-05T13:41:06.253Z,97364.38
2023-04-05T13:44:07.730Z,97362.13
2023-04-05T13:47:09.357Z,97347.25
2023-04-05T13:50:10.908Z,97354.63
2023-04-05T13:53:12.424Z,97360.63
2023-04-05T13:56:13.889Z,97349.13
2023-04-05T13:59:17.057Z,97342.72
2023-04-05T14:02:20.664Z,97347.16
2023-04-05T14:05:22.177Z,97354.56
2023-04-05T14:08:23.691Z,97348.59
2023-04-05T14:11:25.889Z,97345.56
2023-04-05T14:14:27.811Z,97336.75
2023-04-05T14:17:29.452Z,97338.22
2023-04-05T14:20:31.084Z,97345.03
2023-04-05T14:23:32.996Z,97346.06
2023-04-05T14:26:34.573Z,97346.72
2023-04-05T14:29:36.100Z,97335.16
2023-04-05T14:32:37.794Z,97335.09
2023-04-05T14:35:39.556Z,97330.44
2023-04-05T14:38:41.272Z,97327.81
2023-04-05T14:41:44.018Z,97331.97
2023-04-05T14:44:45.746Z,97322.47
2023-04-05T14:47:47.446Z,97316.25
2023-04-05T14:50:49.036Z,97318.00
2023-04-05T14:53:51.509Z,97311.31
2023-04-05T14:56:53.031Z,97316.56
2023-04-05T14:59:54.650Z,97318.25
2023-04-05T15:02:56.383Z,97316.34
2023-04-05T15:05:58.377Z,97309.94
2023-04-05T15:08:59.870Z,97313.38
2023-04-05T15:12:02.238Z,97313.03
2023-04-05T15:15:04.186Z,97306.91
2023-04-05T15:18:07.891Z,97307.22
2023-04-05T15:21:09.569Z,97310.69
2023-04-05T15:24:11.583Z,97304.97
2023-04-05T15:27:13.056Z,97301.53
2023-04-05T15:30:14.932Z,97300.31
2023-04-05T15:33:17.569Z,97294.19
2023-04-05T15:36:19.090Z,97297.53
2023-04-05T15:39:21.105Z,97301.75
2023-04-05T15:42:22.828Z,97304.34
2023-04-05T15:45:24.361Z,97308.34
2023-04-05T15:48:25.881Z,97315.44
2023-04-05T15:51:27.459Z,97321.34
2023-04-05T15:54:28.951Z,97324.16
2023-04-05T15:57:30.700Z,97322.22
2023-04-05T16:00:33.447Z,97314.66
2023-04-05T16:03:35.020Z,97309.88
2023-04-05T16:06:36.686Z,97309.69
2023-04-05T16:09:38.213Z,97311.78
2023-04-05T16:12:39.779Z,97306.13
2023-04-05T16:15:41.364Z,97313.66
2023-04-05T16:18:43.034Z,97308.34
2023-04-05T16:21:44.574Z,97304.34
2023-04-05T16:24:46.130Z,97301.31
2023-04-05T16:27:47.756Z,97298.72
2023-04-05T16:30:51.606Z,97300.47
2023-04-05T16:33:53.732Z,97306.47
2023-04-05T16:36:55.354Z,97301.00
2023-04-05T16:39:56.953Z,97290.19
2023-04-05T16:42:58.557Z,97301.31
2023-04-05T16:46:00.248Z,97297.75
2023-04-05T16:49:02.091Z,97293.88
2023-04-05T16:52:03.899Z,97297.09
2023-04-05T16:55:05.804Z,97289.56
2023-04-05T16:58:07.491Z,97296.06
2023-04-05T17:01:09.116Z,97294.97
2023-04-05T17:04:10.880Z,97294.34
2023-04-05T17:07:12.489Z,97303.50
2023-04-05T17:10:14.108Z,97301.97
2023-04-05T17:13:15.981Z,97303.63
2023-04-05T17:16:18.167Z,97296.41
2023-04-05T17:19:19.839Z,97297.25
2023-04-05T17:22:21.374Z,97292.81
2023-04-05T17:25:22.881Z,97304.63
2023-04-05T17:28:25.727Z,97295.94
2023-04-05T17:31:27.557Z,97298.16
2023-04-05T17:34:29.098Z,97299.84
2023-04-05T17:37:30.596Z,97309.75
2023-04-05T17:40:32.247Z,97301.91
2023-04-05T17:43:33.796Z,97302.41
2023-04-05T17:46:42.910Z,97310.69
2023-04-05T17:49:46.193Z,97314.44
2023-04-05T17:52:47.787Z,97311.56
2023-04-05T17:55:49.241Z,97316.88
2023-04-05T17:58:50.895Z,97315.75
2023-04-05T18:01:53.738Z,97318.97
2023-04-05T18:04:55.458Z,97321.84
2023-04-05T18:07:57.100Z,97330.66
2023-04-05T18:10:59.778Z,97331.25
2023-04-05T18:14:01.395Z,97327.69
2023-04-05T18:17:06.821Z,97337.25
2023-04-05T18:20:08.839Z,97342.75
2023-04-05T18:23:10.613Z,97338.94
2023-04-05T18:26:14.277Z,97349.59
2023-04-05T18:29:16.231Z,97348.78
2023-04-05T18:32:17.957Z,97356.25
2023-04-05T18:35:19.626Z,97357.97
2023-04-05T18:38:21.704Z,97360.06
2023-04-05T18:41:23.378Z,97364.22
2023-04-05T18:44:24.963Z,97364.78
2023-04-05T18:47:26.771Z,97367.44
2023-04-05T18:50:28.350Z,97377.38
2023-04-05T18:53:29.860Z,97380.22
2023-04-05T18:56:31.457Z,97383.16
2023-04-05T18:59:33.006Z,97388.72
2023-04-05T19:02:34.642Z,97394.00
2023-04-05T19:05:36.250Z,97394.91
2023-04-05T19:08:37.924Z,97400.63
2023-04-05T19:11:39.447Z,97398.63
2023-04-05T19:14:42.462Z,97409.25
2023-04-05T19:17:44.133Z,97405.69
2023-04-05T19:20:45.951Z,97413.75
2023-04-05T19:23:47.574Z,97419.06
2023-04-05T19:26:49.105Z,97417.59
2023-04-05T19:29:50.703Z,97420.94
2023-04-05T19:32:53.878Z,97414.41
2023-04-05T19:35:57.507Z,97418.38
2023-04-05T19:38:59.246Z,97424.53
2023-04-05T19:42:00.785Z,97425.72
2023-04-05T19:45:02.338Z,97432.31
2023-04-05T19:48:27.644Z,97434.94
2023-04-05T19:51:29.315Z,97441.84
2023-04-05T19:54:31.082Z,97436.56
2023-04-05T19:57:42.202Z,97438.06
2023-04-05T20:00:52.463Z,97431.94
2023-04-05T20:03:54.312Z,97424.72
2023-04-05T20:06:56.180Z,97436.31
2023-04-05T20:09:57.760Z,97436.31
2023-04-05T20:12:59.295Z,97439.63
2023-04-05T20:16:00.944Z,97441.44
2023-04-05T20:19:02.503Z,97437.66
2023-04-05T20:22:07.080Z,97442.63
2023-04-05T20:25:38.763Z,97441.78
2023-04-05T20:28:41.960Z,97436.66
2023-04-05T20:31:43.783Z,97442.28
2023-04-05T20:34:46.104Z,97435.03
2023-04-05T20:37:49.740Z,97438.00
2023-04-05T20:40:51.554Z,97440.16
2023-04-05T20:43:54.432Z,97445.25
2023-04-05T20:46:57.756Z,97430.53
2023-04-05T20:50:00.628Z,97433.47
2023-04-05T20:53:05.667Z,97442.81
2023-04-05T20:56:10.281Z,97431.75
2023-04-05T20:59:12.514Z,97428.41
2023-04-05T21:02:14.257Z,97428.19
2023-04-05T21:05:15.813Z,97433.41
2023-04-05T21:08:17.548Z,97436.88
2023-04-05T21:11:19.145Z,97436.56
2023-04-05T21:14:20.892Z,97440.50
2023-04-05T21:17:22.398Z,97437.38
2023-04-05T21:20:23.937Z,97436.19
2023-04-05T21:23:27.221Z,97432.25
2023-04-05T21:26:28.802Z,97430.94
2023-04-05T21:29:30.372Z,97430.56
2023-04-05T21:32:32.051Z,97429.81
2023-04-05T21:35:34.064Z,97443.47
2023-04-05T21:38:35.853Z,97434.09
2023-04-05T21:41:37.308Z,97439.50
2023-04-05T21:44:38.805Z,97439.28
2023-04-05T21:47:40.379Z,97438.69
2023-04-05T21:50:42.011Z,97443.00
2023-04-05T21:53:43.497Z,97450.78
2023-04-05T21:56:46.054Z,97440.91
2023-04-05T21:59:47.611Z,97447.47
2023-04-05T22:02:49.114Z,97442.94
2023-04-05T22:05:50.697Z,97433.63
2023-04-05T22:08:53.754Z,97433.34
2023-04-05T22:11:56.987Z,97434.03
2023-04-05T22:14:58.603Z,97438.47
2023-04-05T22:18:00.268Z,97443.72
2023-04-05T22:21:01.910Z,97445.53
2023-04-05T22:24:03.700Z,97438.56
2023-04-05T22:27:05.189Z,97437.84
2023-04-05T22:30:08.181Z,97441.53
2023-04-05T22:33:12.574Z,97440.28
2023-04-05T22:36:14.558Z,97443.81
2023-04-05T22:39:16.281Z,97442.69
2023-04-05T22:42:17.846Z,97445.22
2023-04-05T22:45:19.384Z,97443.72
2023-04-05T22:48:21.075Z,97435.09
2023-04-05T22:51:22.583Z,97432.16
2023-04-05T22:54:24.107Z,97439.22
2023-04-05T22:57:25.645Z,97425.94
2023-04-05T23:00:27.171Z,97428.84
2023-04-05T23:03:28.883Z,97429.84
2023-04-05T23:06:31.048Z,97432.22
2023-04-05T23:09:32.545Z,97434.78
2023-04-05T23:12:34.086Z,97434.47
2023-04-05T23:15:35.708Z,97428.22
2023-04-05T23:18:37.332Z,97431.34
2023-04-05T23:21:38.926Z,97434.72
2023-04-05T23:24:40.540Z,97426.16
2023-04-05T23:27:42.055Z,97427.34
2023-04-05T23:30:43.684Z,97422.00
2023-04-05T23:33:45.310Z,97425.50
2023-04-05T23:36:46.864Z,97424.97
2023-04-05T23:39:48.400Z,97420.50
2023-04-05T23:42:50.531Z,97422.44
2023-04-05T23:45:52.099Z,97420.75
2023-04-05T23:48:53.653Z,97424.50
2023-04-05T23:51:55.793Z,97426.72
2023-04-05T23:54:57.269Z,97422.84
2023-04-05T23:58:00.124Z,97414.13
